Time;durP1;ratioP1;P1;durP2;ratioP2;P2;SDS_P1;SDS_P2;PMS_P1;PMS_P2;Temp;Humidity;BMP_temperature;BMP_pressure;BME280_temperature;BME280_humidity;BME280_pressure;Samples;Min_cycle;Max_cycle;Signal;HPM_P1;HPM_P2
2023/08/17 00:01:57;;;;;;;;;;;;;;;;;;5018291;28;20060;-60
2023/08/17 00:04:31;;;;;;;17.55;4.63;;;;;;;;;;5017128;28;20585;-59
2023/08/17 00:06:58;;;;;;;23.25;4.43;;;;;;;;;;5012276;28;20065;-59
2023/08/17 00:09:26;;;;;;;16.40;4.78;;;;;;;;;;5019441;28;20100;-64
2023/08/17 00:11:59;;;;;;;27.05;5.13;;;;;;;;;;5015644;28;20052;-52
2023/08/17 00:14:26;;;;;;;17.77;4.57;;;;;;;;;;5017461;28;20060;-49
2023/08/17 00:16:54;;;;;;;19.92;4.18;;;;;;;;;;5009445;28;20552;-53
2023/08/17 00:19:27;;;;;;;13.20;4.28;;;;;;;;;;5010275;28;22142;-52
2023/08/17 00:21:55;;;;;;;18.35;4.82;;;;;;;;;;5014041;28;20080;-51
2023/08/17 00:24:29;;;;;;;17.92;4.55;;;;;;;;;;5012301;28;20049;-52
2023/08/17 00:26:56;;;;;;;14.15;3.95;;;;;;;;;;5015371;28;20131;-60
2023/08/17 00:29:23;;;;;;;13.75;4.65;;;;;;;;;;5015812;28;20098;-59
2023/08/17 00:31:57;;;;;;;16.30;4.45;;;;;;;;;;5023525;28;20065;-59
2023/08/17 00:34:24;;;;;;;15.02;4.55;;;;;;;;;;5017059;28;20370;-59
2023/08/17 00:36:58;;;;;;;19.15;4.47;;;;;;;;;;5010170;28;20502;-68
2023/08/17 00:39:25;;;;;;;15.98;4.55;;;;;;;;;;5017803;28;20057;-60
2023/08/17 00:41:53;;;;;;;16.05;4.05;;;;;;;;;;5015339;28;20412;-59
2023/08/17 00:44:26;;;;;;;19.25;4.60;;;;;;;;;;5007647;28;20054;-59
2023/08/17 00:46:53;;;;;;;15.85;4.50;;;;;;;;;;5017694;28;20061;-59
2023/08/17 00:49:21;;;;;;;16.45;4.03;;;;;;;;;;4996355;28;20703;-59
2023/08/17 00:51:54;;;;;;;16.05;3.97;;;;;;;;;;5016362;28;20057;-59
2023/08/17 00:54:22;;;;;;;;;;;;;;;;;;5013485;28;20069;-58
2023/08/17 00:56:55;;;;;;;17.02;4.10;;;;;;;;;;5015307;28;19925;-68
2023/08/17 00:59:22;;;;;;;20.83;4.22;;;;;;;;;;5018260;28;20484;-67
2023/08/17 01:01:50;;;;;;;16.67;3.88;;;;;;;;;;5016247;28;20196;-67
2023/08/17 01:04:23;;;;;;;15.98;4.60;;;;;;;;;;5008366;28;20057;-67
2023/08/17 01:06:50;;;;;;;10.88;4.07;;;;;;;;;;5007705;28;20081;-59
2023/08/17 01:09:24;;;;;;;20.33;3.83;;;;;;;;;;5012104;28;20535;-59
2023/08/17 01:12:00;;;;;;;13.93;4.25;;;;;;;;;;5016000;28;20045;-59
2023/08/17 01:14:54;;;;;;;18.02;4.40;;;;;;;;;;5018535;28;20156;-59
2023/08/17 01:17:33;;;;;;;11.95;3.85;;;;;;;;;;5011751;28;20046;-59
2023/08/17 01:20:13;;;;;;;16.20;4.22;;;;;;;;;;5013019;28;20064;-59
2023/08/17 01:22:42;;;;;;;16.77;4.72;;;;;;;;;;5011350;28;20577;-59
2023/08/17 01:25:16;;;;;;;14.90;4.35;;;;;;;;;;5007467;28;20050;-65
2023/08/17 01:27:47;;;;;;;18.23;4.32;;;;;;;;;;5012172;28;20053;-64
2023/08/17 01:30:20;;;;;;;11.93;4.00;;;;;;;;;;5011627;28;20081;-65
2023/08/17 01:33:06;;;;;;;12.65;3.90;;;;;;;;;;5014415;28;20057;-65
2023/08/17 01:35:41;;;;;;;13.05;4.07;;;;;;;;;;5013943;28;20609;-50
2023/08/17 01:38:12;;;;;;;17.38;4.78;;;;;;;;;;5018044;28;20107;-60
2023/08/17 01:40:47;;;;;;;15.18;4.18;;;;;;;;;;5018199;28;20053;-59
2023/08/17 01:43:15;;;;;;;15.27;4.35;;;;;;;;;;5012521;28;20127;-59
2023/08/17 01:45:49;;;;;;;15.77;4.13;;;;;;;;;;5017897;28;20441;-59
2023/08/17 01:48:16;;;;;;;15.63;4.35;;;;;;;;;;5011449;28;20057;-60
2023/08/17 01:50:44;;;;;;;17.27;4.47;;;;;;;;;;5014630;28;20192;-59
2023/08/17 01:53:17;;;;;;;16.60;4.47;;;;;;;;;;5018394;28;20057;-68
2023/08/17 01:55:44;;;;;;;10.18;3.72;;;;;;;;;;5012170;28;20532;-67
2023/08/17 01:58:20;;;;;;;21.75;5.07;;;;;;;;;;5014556;28;20053;-67
2023/08/17 02:00:47;;;;;;;15.13;4.60;;;;;;;;;;5013691;28;20573;-67
2023/08/17 02:03:15;;;;;;;18.08;4.10;;;;;;;;;;5013551;28;20156;-67
2023/08/17 02:05:48;;;;;;;18.27;4.03;;;;;;;;;;5009485;28;20621;-59
2023/08/17 02:08:15;;;;;;;18.83;4.68;;;;;;;;;;5012431;28;20050;-59
2023/08/17 02:10:56;;;;;;;13.52;4.22;;;;;;;;;;5010189;28;20108;-58
2023/08/17 02:13:23;;;;;;;14.63;4.00;;;;;;;;;;5014788;28;20056;-59
2023/08/17 02:16:04;;;;;;;18.25;4.88;;;;;;;;;;5008728;28;20490;-59
2023/08/17 02:18:38;;;;;;;14.38;4.35;;;;;;;;;;5009436;28;20049;-58
2023/08/17 02:21:11;;;;;;;21.80;4.60;;;;;;;;;;5012514;28;20097;-66
2023/08/17 02:23:45;;;;;;;19.23;4.90;;;;;;;;;;5009940;28;20065;-64
2023/08/17 02:26:13;;;;;;;25.73;5.50;;;;;;;;;;5015415;28;20351;-64
2023/08/17 02:28:40;;;;;;;13.38;4.35;;;;;;;;;;5005973;28;20804;-65
2023/08/17 02:31:14;;;;;;;16.27;4.53;;;;;;;;;;5013013;28;20054;-54
2023/08/17 02:33:41;;;;;;;12.77;4.45;;;;;;;;;;5010879;28;20080;-67
2023/08/17 02:36:15;;;;;;;13.95;4.38;;;;;;;;;;5013565;28;20049;-67
2023/08/17 02:38:42;;;;;;;17.55;4.00;;;;;;;;;;5010870;28;20059;-68
2023/08/17 02:41:10;;;;;;;11.85;3.88;;;;;;;;;;5014672;28;20056;-67
2023/08/17 02:43:43;;;;;;;14.80;4.38;;;;;;;;;;5012359;28;20127;-67
2023/08/17 02:46:11;;;;;;;;;;;;;;;;;;5017146;28;20058;-66
2023/08/17 02:48:44;;;;;;;22.80;4.90;;;;;;;;;;5011116;28;20281;-57
2023/08/17 02:51:12;;;;;;;;;;;;;;;;;;5014141;28;20862;-57
2023/08/17 02:53:39;;;;;;;16.17;4.22;;;;;;;;;;5013366;28;19979;-57
2023/08/17 02:56:13;;;;;;;17.58;4.35;;;;;;;;;;5014422;28;20655;-57
2023/08/17 02:58:41;;;;;;;18.90;4.25;;;;;;;;;;5007808;28;20050;-54
2023/08/17 03:01:14;;;;;;;15.57;4.20;;;;;;;;;;5010938;28;20061;-61
2023/08/17 03:03:41;;;;;;;17.35;4.32;;;;;;;;;;5008852;28;20107;-68
2023/08/17 03:06:09;;;;;;;17.33;4.60;;;;;;;;;;5007622;28;20058;-67
2023/08/17 03:08:42;;;;;;;12.38;3.63;;;;;;;;;;5013076;28;20060;-68
2023/08/17 03:11:10;;;;;;;19.30;4.55;;;;;;;;;;5012799;28;20053;-67
2023/08/17 03:13:37;;;;;;;20.60;5.57;;;;;;;;;;5008625;28;20539;-67
2023/08/17 03:16:17;;;;;;;15.15;4.30;;;;;;;;;;5010269;28;20467;-67
2023/08/17 03:18:44;;;;;;;12.93;4.82;;;;;;;;;;5007432;28;20045;-65
2023/08/17 03:21:19;;;;;;;17.67;4.10;;;;;;;;;;5009072;28;20095;-64
2023/08/17 03:23:46;;;;;;;19.90;4.93;;;;;;;;;;5008037;28;20049;-66
2023/08/17 03:26:13;;;;;;;17.85;3.97;;;;;;;;;;5014371;28;20065;-65
2023/08/17 03:28:47;;;;;;;19.90;4.40;;;;;;;;;;5009431;28;20162;-55
2023/08/17 03:31:14;;;;;;;16.73;4.50;;;;;;;;;;5004186;28;20101;-52
2023/08/17 03:33:48;;;;;;;14.13;4.10;;;;;;;;;;5010730;28;20117;-53
2023/08/17 03:36:16;;;;;;;19.98;4.40;;;;;;;;;;5009624;28;20057;-52
2023/08/17 03:38:43;;;;;;;;;;;;;;;;;;5014523;28;20583;-52
2023/08/17 03:41:17;;;;;;;16.55;4.15;;;;;;;;;;5014726;28;20307;-51
2023/08/17 03:43:45;;;;;;;13.77;4.30;;;;;;;;;;5009283;28;20061;-51
2023/08/17 03:46:12;;;;;;;15.40;3.90;;;;;;;;;;5011608;28;20064;-59
2023/08/17 03:48:48;;;;;;;16.25;4.25;;;;;;;;;;5011078;28;20050;-59
2023/08/17 03:51:16;;;;;;;22.27;4.75;;;;;;;;;;5012945;28;20061;-59
2023/08/17 03:53:50;;;;;;;18.60;4.32;;;;;;;;;;5014407;28;20053;-59
2023/08/17 03:56:17;;;;;;;12.80;4.68;;;;;;;;;;5015680;28;20189;-58
2023/08/17 03:58:44;;;;;;;18.08;4.82;;;;;;;;;;5010285;28;20474;-58
2023/08/17 04:01:18;;;;;;;14.15;4.53;;;;;;;;;;5016153;28;20049;-57
2023/08/17 04:03:45;;;;;;;12.20;3.83;;;;;;;;;;5011629;28;20462;-56
2023/08/17 04:06:19;;;;;;;17.13;4.57;;;;;;;;;;5020814;28;20108;-57
2023/08/17 04:08:47;;;;;;;19.27;5.20;;;;;;;;;;5017749;28;20303;-58
2023/08/17 04:11:20;;;;;;;11.77;4.97;;;;;;;;;;5022873;28;20105;-55
2023/08/17 04:13:54;;;;;;;18.92;4.65;;;;;;;;;;5015518;28;20057;-68
2023/08/17 04:16:28;;;;;;;17.27;4.80;;;;;;;;;;5017250;28;20061;-68
2023/08/17 04:19:09;;;;;;;25.10;5.35;;;;;;;;;;5012883;28;20425;-68
2023/08/17 04:21:36;;;;;;;19.77;4.68;;;;;;;;;;5006611;28;20413;-68
2023/08/17 04:24:11;;;;;;;16.80;4.68;;;;;;;;;;5008626;28;20072;-64
2023/08/17 04:26:38;;;;;;;16.40;4.82;;;;;;;;;;5014797;28;20052;-51
2023/08/17 04:29:06;;;;;;;15.18;4.63;;;;;;;;;;5015258;28;20252;-48
2023/08/17 04:31:39;;;;;;;16.02;4.60;;;;;;;;;;5013995;28;20070;-49
2023/08/17 04:34:06;;;;;;;;;;;;;;;;;;5013464;28;20065;-54
2023/08/17 04:36:40;;;;;;;16.75;5.07;;;;;;;;;;5014836;28;19924;-53
2023/08/17 04:39:09;;;;;;;16.55;5.10;;;;;;;;;;5018454;28;20050;-54
2023/08/17 04:41:42;;;;;;;12.07;4.80;;;;;;;;;;5013733;28;20045;-53
2023/08/17 04:44:09;;;;;;;14.13;4.80;;;;;;;;;;5011526;28;20558;-50
2023/08/17 04:46:37;;;;;;;12.48;4.75;;;;;;;;;;5011048;28;20527;-51
2023/08/17 04:49:11;;;;;;;11.40;5.10;;;;;;;;;;5011030;28;20045;-52
2023/08/17 04:51:38;;;;;;;17.98;4.72;;;;;;;;;;5013099;28;20049;-53
2023/08/17 04:54:12;;;;;;;20.17;4.88;;;;;;;;;;5012144;28;20154;-68
2023/08/17 04:56:39;;;;;;;14.27;4.95;;;;;;;;;;5014489;28;20127;-59
2023/08/17 04:59:06;;;;;;;12.70;4.57;;;;;;;;;;5011658;28;20219;-59
2023/08/17 05:01:40;;;;;;;16.52;4.57;;;;;;;;;;5013559;28;20711;-59
2023/08/17 05:04:08;;;;;;;11.18;4.38;;;;;;;;;;5005570;28;21792;-59
2023/08/17 05:06:42;;;;;;;16.80;4.63;;;;;;;;;;5011106;28;20108;-59
2023/08/17 05:09:10;;;;;;;;;;;;;;;;;;5018899;28;20442;-59
2023/08/17 05:11:37;;;;;;;18.27;5.00;;;;;;;;;;5018990;28;19926;-56
2023/08/17 05:14:11;;;;;;;12.20;4.38;;;;;;;;;;5014638;28;20858;-56
2023/08/17 05:16:52;;;;;;;12.80;4.25;;;;;;;;;;5017480;28;20112;-57
2023/08/17 05:19:26;;;;;;;14.32;4.10;;;;;;;;;;5018400;28;20140;-56
2023/08/17 05:21:54;;;;;;;14.88;4.72;;;;;;;;;;5015387;28;20120;-56
2023/08/17 05:24:21;;;;;;;13.52;4.45;;;;;;;;;;5017428;28;20060;-49
2023/08/17 05:26:54;;;;;;;13.95;4.38;;;;;;;;;;5018515;28;20053;-50
2023/08/17 05:29:22;;;;;;;22.75;5.07;;;;;;;;;;5015259;28;20049;-53
2023/08/17 05:31:55;;;;;;;15.75;4.70;;;;;;;;;;5016710;28;20048;-54
2023/08/17 05:34:23;;;;;;;18.85;4.90;;;;;;;;;;5013942;28;20261;-56
2023/08/17 05:36:50;;;;;;;14.25;4.85;;;;;;;;;;5014640;28;20670;-55
2023/08/17 05:39:24;;;;;;;14.98;4.40;;;;;;;;;;5017602;28;20115;-52
2023/08/17 05:41:51;;;;;;;13.75;4.72;;;;;;;;;;5019750;28;20049;-53
2023/08/17 05:44:25;;;;;;;13.52;4.30;;;;;;;;;;5015569;28;20064;-53
2023/08/17 05:46:52;;;;;;;24.70;5.07;;;;;;;;;;5022479;28;20057;-52
2023/08/17 05:49:20;;;;;;;19.17;4.90;;;;;;;;;;5015267;28;20424;-50
2023/08/17 05:51:53;;;;;;;14.60;4.45;;;;;;;;;;5017948;28;20115;-67
2023/08/17 05:54:20;;;;;;;11.05;4.03;;;;;;;;;;5015397;28;20076;-59
2023/08/17 05:56:54;;;;;;;17.20;4.47;;;;;;;;;;5017337;28;20523;-59
2023/08/17 05:59:21;;;;;;;13.23;3.72;;;;;;;;;;5015519;28;20100;-59
2023/08/17 06:01:49;;;;;;;14.13;4.10;;;;;;;;;;5018001;28;20748;-60
2023/08/17 06:04:22;;;;;;;14.02;3.67;;;;;;;;;;5015686;28;20593;-60
2023/08/17 06:06:50;;;;;;;10.50;4.05;;;;;;;;;;5012129;28;20135;-59
2023/08/17 06:09:23;;;;;;;10.95;3.80;;;;;;;;;;5013935;28;20143;-65
2023/08/17 06:11:50;;;;;;;11.38;3.50;;;;;;;;;;5016560;28;20081;-65
2023/08/17 06:14:18;;;;;;;11.60;4.00;;;;;;;;;;5013715;28;20057;-65
2023/08/17 06:17:04;;;;;;;15.32;3.90;;;;;;;;;;5012511;28;20104;-65
2023/08/17 06:19:39;;;;;;;14.45;3.78;;;;;;;;;;5012464;28;20053;-53
2023/08/17 06:22:13;;;;;;;14.73;3.60;;;;;;;;;;5005308;28;20057;-65
2023/08/17 06:24:40;;;;;;;12.85;3.20;;;;;;;;;;5016253;28;20070;-65
2023/08/17 06:27:08;;;;;;;12.45;3.40;;;;;;;;;;5013873;28;20125;-65
2023/08/17 06:29:41;;;;;;;14.98;3.45;;;;;;;;;;5011505;28;20046;-65
2023/08/17 06:32:09;;;;;;;8.70;3.20;;;;;;;;;;5010890;28;20046;-65
2023/08/17 06:34:36;;;;;;;10.80;3.67;;;;;;;;;;5016337;28;20054;-65
2023/08/17 06:37:09;;;;;;;15.93;3.03;;;;;;;;;;5017611;28;20167;-58
2023/08/17 06:39:36;;;;;;;9.88;3.25;;;;;;;;;;5014098;28;20053;-58
2023/08/17 06:42:10;;;;;;;15.98;3.30;;;;;;;;;;5020203;28;20037;-57
2023/08/17 06:44:38;;;;;;;10.77;3.30;;;;;;;;;;5013815;28;20057;-58
2023/08/17 06:47:05;;;;;;;12.52;3.38;;;;;;;;;;5013312;28;20238;-51
2023/08/17 06:49:39;;;;;;;11.85;3.40;;;;;;;;;;5012227;28;20061;-67
2023/08/17 06:52:06;;;;;;;9.35;3.13;;;;;;;;;;5014457;28;20072;-66
2023/08/17 06:54:40;;;;;;;11.32;3.35;;;;;;;;;;5011182;28;20093;-67
2023/08/17 06:57:07;;;;;;;11.43;3.08;;;;;;;;;;5016728;28;20434;-66
2023/08/17 06:59:35;;;;;;;10.50;2.70;;;;;;;;;;5014583;28;20088;-67
2023/08/17 07:02:08;;;;;;;10.50;3.17;;;;;;;;;;5012291;28;20046;-67
2023/08/17 07:04:35;;;;;;;10.15;2.83;;;;;;;;;;5013401;28;20049;-66
2023/08/17 07:07:09;;;;;;;10.18;2.97;;;;;;;;;;5015641;28;20045;-66
2023/08/17 07:09:37;;;;;;;9.70;3.45;;;;;;;;;;5019275;28;20494;-67
2023/08/17 07:12:04;;;;;;;9.95;3.00;;;;;;;;;;5014320;28;20488;-66
2023/08/17 07:14:37;;;;;;;8.50;3.08;;;;;;;;;;5017374;28;20123;-67
2023/08/17 07:17:17;;;;;;;8.60;3.42;;;;;;;;;;5015596;28;20104;-57
2023/08/17 07:19:52;;;;;;;9.52;2.80;;;;;;;;;;5013788;28;20450;-55
2023/08/17 07:22:39;;;;;;;5.72;2.90;;;;;;;;;;5009439;28;20045;-51
2023/08/17 07:25:13;;;;;;;11.50;3.20;;;;;;;;;;5014622;28;20067;-54
2023/08/17 07:27:42;;;;;;;17.67;2.92;;;;;;;;;;5017973;28;20049;-54
2023/08/17 07:30:09;;;;;;;9.32;2.53;;;;;;;;;;5021741;28;20053;-54
2023/08/17 07:32:43;;;;;;;8.23;3.10;;;;;;;;;;5019432;28;20056;-59
2023/08/17 07:35:11;;;;;;;;;;;;;;;;;;5018499;28;20049;-59
2023/08/17 07:37:44;;;;;;;13.25;2.90;;;;;;;;;;5019055;28;19929;-60
2023/08/17 07:40:29;;;;;;;10.43;3.22;;;;;;;;;;5014574;28;20119;-59
2023/08/17 07:43:03;;;;;;;7.53;2.90;;;;;;;;;;5016752;28;20119;-60
2023/08/17 07:45:37;;;;;;;10.20;3.40;;;;;;;;;;5020148;28;20058;-48
2023/08/17 07:48:11;;;;;;;9.20;2.83;;;;;;;;;;5019216;28;20057;-66
2023/08/17 07:50:39;;;;;;;13.30;3.40;;;;;;;;;;5015296;28;20045;-66
2023/08/17 07:53:12;;;;;;;6.90;2.67;;;;;;;;;;5019038;28;20065;-65
2023/08/17 07:55:39;;;;;;;6.88;2.47;;;;;;;;;;5018686;28;20069;-66
2023/08/17 07:58:07;;;;;;;8.07;2.78;;;;;;;;;;5018313;28;20053;-66
2023/08/17 08:00:40;;;;;;;9.60;3.17;;;;;;;;;;5021255;28;20100;-66
2023/08/17 08:03:08;;;;;;;7.60;2.33;;;;;;;;;;5017479;28;20058;-67
2023/08/17 08:05:41;;;;;;;8.38;3.10;;;;;;;;;;5019371;28;20143;-67
2023/08/17 08:08:09;;;;;;;17.45;3.35;;;;;;;;;;5016466;28;20054;-66
2023/08/17 08:10:36;;;;;;;5.53;2.30;;;;;;;;;;5005080;28;20053;-67
2023/08/17 08:13:09;;;;;;;9.50;3.15;;;;;;;;;;5018861;28;20128;-60
2023/08/17 08:15:36;;;;;;;8.48;3.20;;;;;;;;;;5021644;28;20054;-61
2023/08/17 08:18:17;;;;;;;9.05;2.72;;;;;;;;;;5017553;28;20053;-60
2023/08/17 08:20:44;;;;;;;9.55;3.35;;;;;;;;;;5017550;28;20154;-60
2023/08/17 08:23:18;;;;;;;12.63;2.85;;;;;;;;;;5005731;28;20056;-60
2023/08/17 08:25:46;;;;;;;9.27;3.05;;;;;;;;;;5019111;28;20053;-60
2023/08/17 08:28:13;;;;;;;9.30;3.42;;;;;;;;;;5014694;28;20050;-61
2023/08/17 08:30:46;;;;;;;11.70;2.85;;;;;;;;;;5019312;28;20526;-54
2023/08/17 08:33:13;;;;;;;12.23;3.08;;;;;;;;;;5018376;28;20093;-51
2023/08/17 08:35:47;;;;;;;5.90;2.50;;;;;;;;;;5013855;28;20140;-52
2023/08/17 08:38:15;;;;;;;6.93;3.08;;;;;;;;;;5014451;28;20139;-52
2023/08/17 08:40:42;;;;;;;;;;;;;;;;;;5018380;28;20058;-66
2023/08/17 08:43:15;;;;;;;6.05;2.67;;;;;;;;;;5016339;28;19920;-67
2023/08/17 08:45:44;;;;;;;7.35;3.15;;;;;;;;;;5022876;28;20114;-67
2023/08/17 08:48:19;;;;;;;9.63;2.85;;;;;;;;;;5015012;28;20041;-67
2023/08/17 08:50:48;;;;;;;9.60;2.90;;;;;;;;;;5019124;28;20057;-66
2023/08/17 08:53:16;;;;;;;8.05;2.72;;;;;;;;;;5019221;28;20069;-67
2023/08/17 08:55:57;;;;;;;10.73;3.28;;;;;;;;;;5012407;28;20054;-67
2023/08/17 08:58:25;;;;;;;6.50;2.50;;;;;;;;;;5019585;28;20121;-65
2023/08/17 09:01:00;;;;;;;7.20;2.65;;;;;;;;;;5016655;28;20136;-65
2023/08/17 09:03:28;;;;;;;11.95;2.92;;;;;;;;;;5017273;28;20511;-64
2023/08/17 09:06:04;;;;;;;6.95;2.55;;;;;;;;;;5015168;28;20057;-65
2023/08/17 09:08:31;;;;;;;7.25;2.53;;;;;;;;;;5011679;28;20136;-58
2023/08/17 09:10:58;;;;;;;6.55;2.70;;;;;;;;;;5014206;28;20073;-52
2023/08/17 09:13:32;;;;;;;7.97;2.28;;;;;;;;;;5013996;28;20053;-67
2023/08/17 09:16:01;;;;;;;6.43;2.55;;;;;;;;;;5022015;28;20144;-67
2023/08/17 09:18:41;;;;;;;8.90;2.55;;;;;;;;;;5000711;28;20068;-66
2023/08/17 09:21:08;;;;;;;6.97;2.85;;;;;;;;;;4997047;28;20108;-66
2023/08/17 09:23:43;;;;;;;5.82;2.53;;;;;;;;;;4998391;28;20416;-67
2023/08/17 09:26:10;;;;;;;4.78;2.63;;;;;;;;;;4997927;28;20113;-67
2023/08/17 09:28:40;;;;;;;9.38;2.97;;;;;;;;;;4998804;28;20058;-65
2023/08/17 09:31:14;;;;;;;9.07;2.90;;;;;;;;;;4995834;28;20085;-65
2023/08/17 09:33:42;;;;;;;5.78;2.92;;;;;;;;;;5000195;28;20050;-65
2023/08/17 09:36:15;;;;;;;7.75;2.50;;;;;;;;;;5001632;28;20053;-65
2023/08/17 09:38:43;;;;;;;6.03;2.60;;;;;;;;;;4993775;28;20054;-56
2023/08/17 09:41:10;;;;;;;5.78;2.40;;;;;;;;;;5000003;28;21388;-60
2023/08/17 09:43:43;;;;;;;8.23;3.00;;;;;;;;;;5001476;28;20128;-60
2023/08/17 09:46:11;;;;;;;;;;;;;;;;;;4996784;28;20072;-60
2023/08/17 09:48:39;;;;;;;8.32;2.75;;;;;;;;;;5000809;28;19933;-60
2023/08/17 09:51:15;;;;;;;6.75;2.58;;;;;;;;;;5000011;28;20117;-61
2023/08/17 09:53:43;;;;;;;6.70;3.00;;;;;;;;;;4998924;28;20046;-61
2023/08/17 09:56:16;;;;;;;6.18;2.72;;;;;;;;;;5001461;28;20053;-54
2023/08/17 09:58:44;;;;;;;;;;;;;;;;;;4997432;28;20061;-54
2023/08/17 10:01:13;;;;;;;7.18;2.55;;;;;;;;;;5000954;28;19930;-55
2023/08/17 10:03:47;;;;;;;8.07;2.70;;;;;;;;;;5002179;28;20062;-51
2023/08/17 10:06:17;;;;;;;9.25;2.75;;;;;;;;;;4997614;28;20535;-54
2023/08/17 10:08:56;;;;;;;8.35;2.72;;;;;;;;;;4995500;28;20053;-67
2023/08/17 10:11:24;;;;;;;4.20;2.30;;;;;;;;;;4997507;28;20050;-66
2023/08/17 10:13:51;;;;;;;;;;;;;;;;;;4985998;28;20051;-66
2023/08/17 10:16:45;;;;;;;10.60;2.78;;;;;;;;;;5000734;28;19995;-67
2023/08/17 10:19:51;;;;;;;9.10;2.75;;;;;;;;;;5013221;28;20179;-66
2023/08/17 10:22:33;;;;;;;9.30;2.63;;;;;;;;;;5015689;28;20107;-67
2023/08/17 10:25:01;;;;;;;6.20;2.58;;;;;;;;;;5016139;28;20045;-57
2023/08/17 10:27:35;;;;;;;6.88;2.60;;;;;;;;;;5020604;28;20392;-58
2023/08/17 10:30:02;;;;;;;4.78;2.40;;;;;;;;;;5013859;28;20058;-58
2023/08/17 10:32:37;;;;;;;8.73;2.55;;;;;;;;;;5010362;28;20054;-58
2023/08/17 10:35:05;;;;;;;6.57;2.40;;;;;;;;;;5014267;28;20584;-57
2023/08/17 10:37:32;;;;;;;6.90;2.50;;;;;;;;;;5015446;28;20505;-67
2023/08/17 10:40:07;;;;;;;7.45;2.35;;;;;;;;;;5015903;28;20053;-66
2023/08/17 10:42:36;;;;;;;7.32;2.90;;;;;;;;;;5015114;28;20053;-66
2023/08/17 10:45:23;;;;;;;9.63;2.80;;;;;;;;;;5014600;28;20536;-67
2023/08/17 10:48:21;;;;;;;7.43;2.95;;;;;;;;;;5011418;28;20104;-66
2023/08/17 10:51:01;;;;;;;4.55;2.25;;;;;;;;;;5015638;28;20049;-66
2023/08/17 10:53:38;;;;;;;6.30;2.35;;;;;;;;;;5021473;28;20053;-65
2023/08/17 10:56:07;;;;;;;8.20;2.70;;;;;;;;;;5014876;28;20586;-65
2023/08/17 10:58:42;;;;;;;6.07;2.30;;;;;;;;;;5015720;28;20515;-65
2023/08/17 11:01:10;;;;;;;6.80;2.75;;;;;;;;;;5014735;28;20545;-64
2023/08/17 11:03:47;;;;;;;7.00;2.38;;;;;;;;;;5008597;28;20111;-60
2023/08/17 11:06:15;;;;;;;;;;;;;;;;;;5018104;28;20054;-66
2023/08/17 11:08:55;;;;;;;7.82;2.58;;;;;;;;;;5015467;28;19987;-66
2023/08/17 11:11:23;;;;;;;9.13;2.65;;;;;;;;;;5016110;28;20549;-67
2023/08/17 11:13:57;;;;;;;7.53;2.83;;;;;;;;;;5014247;28;20123;-66
2023/08/17 11:16:25;;;;;;;8.38;2.70;;;;;;;;;;5016905;28;20073;-66
2023/08/17 11:19:05;;;;;;;5.68;2.60;;;;;;;;;;5015026;28;20342;-66
2023/08/17 11:21:39;;;;;;;7.18;2.92;;;;;;;;;;5014078;28;20589;-57
2023/08/17 11:24:12;;;;;;;10.55;3.38;;;;;;;;;;5014638;28;20061;-56
2023/08/17 11:26:40;;;;;;;5.22;2.60;;;;;;;;;;5014651;28;20057;-57
2023/08/17 11:29:08;;;;;;;9.85;3.08;;;;;;;;;;5013275;28;20061;-58
2023/08/17 11:31:42;;;;;;;9.77;3.50;;;;;;;;;;5020979;28;20100;-60
2023/08/17 11:34:09;;;;;;;12.95;2.97;;;;;;;;;;5015995;28;20463;-57
2023/08/17 11:36:43;;;;;;;7.65;2.60;;;;;;;;;;5014592;28;20064;-55
2023/08/17 11:39:11;;;;;;;;;;;;;;;;;;5011774;28;20136;-59
2023/08/17 11:41:46;;;;;;;5.20;2.88;;;;;;;;;;5015465;28;19925;-58
2023/08/17 11:44:14;;;;;;;8.77;2.90;;;;;;;;;;5013926;28;20090;-58
2023/08/17 11:46:41;;;;;;;7.53;2.70;;;;;;;;;;5018838;28;20505;-58
2023/08/17 11:49:15;;;;;;;7.60;2.50;;;;;;;;;;5014101;28;20628;-60
2023/08/17 11:51:42;;;;;;;8.43;2.60;;;;;;;;;;5014724;28;20057;-60
2023/08/17 11:54:16;;;;;;;6.63;3.00;;;;;;;;;;5010816;28;20574;-60
2023/08/17 11:56:43;;;;;;;8.20;3.30;;;;;;;;;;5009730;28;20527;-60
2023/08/17 11:59:18;;;;;;;9.00;2.80;;;;;;;;;;5014733;28;20065;-51
2023/08/17 12:01:45;;;;;;;10.55;3.40;;;;;;;;;;5017669;28;20053;-56
2023/08/17 12:04:13;;;;;;;6.55;3.03;;;;;;;;;;5015426;28;20112;-52
2023/08/17 12:06:47;;;;;;;8.35;2.80;;;;;;;;;;5016713;28;20722;-50
2023/08/17 12:09:14;;;;;;;8.65;2.83;;;;;;;;;;5010588;28;22220;-48
2023/08/17 12:11:47;;;;;;;5.65;2.92;;;;;;;;;;5015556;28;20527;-48
2023/08/17 12:14:15;;;;;;;10.98;3.20;;;;;;;;;;5017945;28;20240;-52
2023/08/17 12:16:47;;;;;;;12.32;3.00;;;;;;;;;;5019037;28;20062;-47
2023/08/17 12:19:27;;;;;;;10.43;3.00;;;;;;;;;;5015488;28;20045;-65
2023/08/17 12:21:54;;;;;;;6.43;2.88;;;;;;;;;;5015831;28;20088;-64
2023/08/17 12:24:29;;;;;;;8.60;3.17;;;;;;;;;;5014428;28;20124;-64
2023/08/17 12:26:58;;;;;;;7.78;2.92;;;;;;;;;;5017083;28;20104;-65
2023/08/17 12:29:25;;;;;;;10.18;3.20;;;;;;;;;;5013015;28;20522;-65
2023/08/17 12:32:01;;;;;;;8.05;2.60;;;;;;;;;;5024976;28;20555;-65
2023/08/17 12:34:28;;;;;;;11.35;3.22;;;;;;;;;;5017703;28;20061;-64
2023/08/17 12:37:01;;;;;;;7.45;2.90;;;;;;;;;;5018872;28;20519;-64
2023/08/17 12:39:29;;;;;;;8.90;3.42;;;;;;;;;;5017405;28;20128;-64
2023/08/17 12:41:56;;;;;;;12.20;3.50;;;;;;;;;;5020358;28;20518;-64
2023/08/17 12:44:30;;;;;;;10.88;2.95;;;;;;;;;;5016685;28;20455;-64
2023/08/17 12:46:57;;;;;;;8.38;3.25;;;;;;;;;;5019063;28;20054;-53
2023/08/17 12:49:31;;;;;;;9.13;3.25;;;;;;;;;;5021504;28;20077;-55
2023/08/17 12:52:04;;;;;;;9.07;3.50;;;;;;;;;;5016791;28;20046;-56
2023/08/17 12:54:38;;;;;;;9.02;3.20;;;;;;;;;;5016977;28;20588;-53
2023/08/17 12:57:18;;;;;;;7.32;2.60;;;;;;;;;;5013901;28;20049;-55
2023/08/17 12:59:45;;;;;;;7.70;2.70;;;;;;;;;;5013224;28;20197;-66
2023/08/17 13:02:22;;;;;;;8.18;2.63;;;;;;;;;;5013628;28;20692;-64
2023/08/17 13:04:57;;;;;;;8.88;3.03;;;;;;;;;;5017282;28;20065;-64
2023/08/17 13:07:24;;;;;;;6.53;2.47;;;;;;;;;;5015446;28;20061;-65
2023/08/17 13:09:57;;;;;;;5.63;2.70;;;;;;;;;;5017647;28;20792;-64
2023/08/17 13:12:24;;;;;;;6.63;3.05;;;;;;;;;;5011304;28;20116;-64
2023/08/17 13:14:52;;;;;;;8.45;2.80;;;;;;;;;;5020591;28;20051;-60
2023/08/17 13:17:33;;;;;;;5.80;2.40;;;;;;;;;;5018974;28;20085;-59
2023/08/17 13:20:01;;;;;;;4.88;2.50;;;;;;;;;;5012540;28;20041;-59
2023/08/17 13:22:34;;;;;;;8.73;2.85;;;;;;;;;;5016363;28;20046;-59
2023/08/17 13:25:01;;;;;;;6.25;2.38;;;;;;;;;;5014889;28;20053;-58
2023/08/17 13:27:29;;;;;;;6.50;2.42;;;;;;;;;;5015238;28;20120;-53
2023/08/17 13:30:02;;;;;;;3.83;2.38;;;;;;;;;;5016746;28;20057;-58
2023/08/17 13:32:30;;;;;;;5.00;2.35;;;;;;;;;;5015172;28;20111;-57
2023/08/17 13:35:04;;;;;;;6.30;2.58;;;;;;;;;;5018180;28;20131;-58
2023/08/17 13:37:31;;;;;;;4.78;2.47;;;;;;;;;;5016912;28;20097;-58
2023/08/17 13:40:00;;;;;;;;;;;;;;;;;;5015339;28;20050;-57
2023/08/17 13:42:37;;;;;;;5.05;2.50;;;;;;;;;;5014498;28;19925;-56
2023/08/17 13:45:04;;;;;;;6.55;2.70;;;;;;;;;;5009875;28;20086;-48
2023/08/17 13:47:38;;;;;;;6.45;3.08;;;;;;;;;;5017036;28;20589;-51
2023/08/17 13:50:06;;;;;;;6.50;2.42;;;;;;;;;;5021774;28;20385;-48
2023/08/17 13:52:39;;;;;;;5.05;2.42;;;;;;;;;;5016382;28;20454;-55
2023/08/17 13:55:07;;;;;;;9.52;2.65;;;;;;;;;;5013923;28;20053;-55
2023/08/17 13:57:34;;;;;;;7.18;2.30;;;;;;;;;;5018863;28;20089;-57
2023/08/17 14:00:09;;;;;;;6.93;2.53;;;;;;;;;;5014274;28;20076;-57
2023/08/17 14:02:36;;;;;;;;;;;;;;;;;;5014171;28;20118;-56
2023/08/17 14:05:10;;;;;;;6.55;2.75;;;;;;;;;;5011988;28;19927;-56
2023/08/17 14:07:37;;;;;;;3.67;2.30;;;;;;;;;;5015595;28;20056;-58
2023/08/17 14:10:04;;;;;;;5.30;2.35;;;;;;;;;;5015534;28;20053;-54
2023/08/17 14:12:58;;;;;;;4.85;2.20;;;;;;;;;;5014979;28;20041;-64
2023/08/17 14:15:25;;;;;;;5.43;2.58;;;;;;;;;;5014363;28;20085;-65
2023/08/17 14:18:12;;;;;;;6.35;2.60;;;;;;;;;;5014093;28;20065;-64
2023/08/17 14:20:46;;;;;;;5.38;2.75;;;;;;;;;;5014857;28;20060;-64
2023/08/17 14:23:20;;;;;;;4.75;2.65;;;;;;;;;;5015097;28;20518;-58
2023/08/17 14:25:54;;;;;;;6.22;2.47;;;;;;;;;;5010189;28;20083;-64
2023/08/17 14:28:28;;;;;;;3.63;2.33;;;;;;;;;;5011614;28;20316;-64
2023/08/17 14:30:56;;;;;;;4.15;2.35;;;;;;;;;;5011551;28;20124;-65
2023/08/17 14:33:23;;;;;;;9.70;2.65;;;;;;;;;;5015222;28;20061;-64
2023/08/17 14:35:56;;;;;;;3.78;2.10;;;;;;;;;;5015831;28;20057;-64
2023/08/17 14:38:23;;;;;;;7.43;2.55;;;;;;;;;;5013665;28;20112;-65
2023/08/17 14:40:58;;;;;;;7.57;2.83;;;;;;;;;;5013368;28;20053;-61
2023/08/17 14:43:25;;;;;;;5.60;2.58;;;;;;;;;;5013384;28;20084;-60
2023/08/17 14:45:52;;;;;;;11.43;2.40;;;;;;;;;;5000351;28;20045;-60
2023/08/17 14:48:27;;;;;;;8.00;2.30;;;;;;;;;;5010944;28;20064;-60
2023/08/17 14:51:00;;;;;;;8.90;2.80;;;;;;;;;;5012255;28;20061;-50
2023/08/17 14:53:34;;;;;;;5.45;2.38;;;;;;;;;;5013805;28;20065;-56
2023/08/17 14:56:05;;;;;;;5.55;2.92;;;;;;;;;;5011081;28;20416;-52
2023/08/17 14:58:32;;;;;;;7.35;2.40;;;;;;;;;;5016455;28;21545;-54
2023/08/17 15:01:07;;;;;;;6.35;2.28;;;;;;;;;;5009002;28;20191;-53
2023/08/17 15:03:34;;;;;;;5.75;2.17;;;;;;;;;;5013625;28;20140;-55
2023/08/17 15:06:09;;;;;;;4.97;2.10;;;;;;;;;;5015443;28;20458;-52